Time;durP1;ratioP1;P1;durP2;ratioP2;P2;SDS_P1;SDS_P2;PMS_P1;PMS_P2;Temp;Humidity;BMP_temperature;BMP_pressure;BME280_temperature;BME280_humidity;BME280_pressure;Samples;Min_cycle;Max_cycle;Signal;HPM_P1;HPM_P2
2023/03/21 00:01:32;;;;;;;5.03;4.32;;;;;;;-142.70;100.00;60390.16;4859346;29;20035;-77
2023/03/21 00:03:57;;;;;;;5.57;4.93;;;;;;;-142.70;100.00;60390.16;4866294;29;20041;-77
2023/03/21 00:06:23;;;;;;;8.93;5.15;;;;;;;-142.70;100.00;60390.16;4867043;29;20403;-77
2023/03/21 00:08:48;;;;;;;5.22;4.68;;;;;;;-142.70;100.00;60390.16;4865866;29;20089;-77
2023/03/21 00:11:14;;;;;;;8.88;5.20;;;;;;;-142.70;100.00;60390.16;4881337;29;20380;-77
2023/03/21 00:13:43;;;;;;;6.85;4.60;;;;;;;-142.70;100.00;60390.16;4865780;29;20469;-77
2023/03/21 00:16:14;;;;;;;7.57;4.67;;;;;;;-142.70;100.00;60390.16;4867755;29;20036;-77
2023/03/21 00:18:40;;;;;;;6.75;5.80;;;;;;;-142.70;100.00;60390.16;4865100;29;20040;-77
2023/03/21 00:21:07;;;;;;;6.95;3.88;;;;;;;-142.70;100.00;60390.16;4866191;29;20033;-77
2023/03/21 00:23:33;;;;;;;4.80;4.30;;;;;;;-142.70;100.00;60390.16;4865650;29;20064;-77
2023/03/21 00:25:59;;;;;;;6.43;3.78;;;;;;;-142.70;100.00;60390.16;4867078;29;20066;-77
2023/03/21 00:28:26;;;;;;;4.95;4.20;;;;;;;-142.70;100.00;60390.16;4867294;29;20065;-77
2023/03/21 00:30:56;;;;;;;6.57;4.10;;;;;;;-142.70;100.00;60390.16;4849888;29;20124;-76
2023/03/21 00:33:22;;;;;;;6.28;4.47;;;;;;;-142.70;100.00;60390.16;4866437;29;20025;-76
2023/03/21 00:35:51;;;;;;;5.28;4.78;;;;;;;-142.70;100.00;60390.16;4866030;29;20108;-78
2023/03/21 00:38:18;;;;;;;8.85;4.32;;;;;;;-142.70;100.00;60390.16;4870249;29;20475;-77
2023/03/21 00:40:43;;;;;;;5.50;4.28;;;;;;;-142.70;100.00;60390.16;4853052;29;20040;-77
2023/03/21 00:43:10;;;;;;;4.68;4.07;;;;;;;-142.70;100.00;60390.16;4869552;29;20033;-76
2023/03/21 00:45:36;;;;;;;6.70;4.38;;;;;;;-142.70;100.00;60390.16;4869252;29;20101;-76
2023/03/21 00:48:01;;;;;;;5.32;4.82;;;;;;;-142.70;100.00;60390.16;4884421;29;20029;-77
2023/03/21 00:50:27;;;;;;;6.75;4.95;;;;;;;-142.70;100.00;60390.16;4854298;29;20428;-77
2023/03/21 00:52:52;;;;;;;6.53;5.00;;;;;;;-142.70;100.00;60390.16;4884624;29;20060;-77
2023/03/21 00:55:18;;;;;;;8.50;6.00;;;;;;;-142.70;100.00;60390.16;4853935;29;20153;-77
2023/03/21 00:57:44;;;;;;;9.20;6.43;;;;;;;-142.70;100.00;60390.16;4868679;29;20057;-77
2023/03/21 01:00:11;;;;;;;8.85;6.22;;;;;;;-142.70;100.00;60390.16;4870747;29;20146;-77
2023/03/21 01:02:41;;;;;;;8.32;5.78;;;;;;;-142.70;100.00;60390.16;4853417;29;20041;-77
2023/03/21 01:05:08;;;;;;;9.10;5.80;;;;;;;-142.70;100.00;60390.16;4868820;29;20129;-76
2023/03/21 01:07:34;;;;;;;8.68;6.63;;;;;;;-142.70;100.00;60390.16;4868976;29;20064;-76
2023/03/21 01:09:59;;;;;;;9.25;6.45;;;;;;;-142.70;100.00;60390.16;4884132;29;20112;-76
2023/03/21 01:12:26;;;;;;;8.43;6.22;;;;;;;-142.70;100.00;60390.16;4884809;29;20479;-76
2023/03/21 01:14:51;;;;;;;11.02;5.85;;;;;;;-142.70;100.00;60390.16;4852787;29;20044;-76
2023/03/21 01:17:16;;;;;;;6.68;6.07;;;;;;;-142.70;100.00;60390.16;4870725;29;20021;-77
2023/03/21 01:19:42;;;;;;;7.50;5.80;;;;;;;-142.70;100.00;60390.16;4868217;29;20862;-74
2023/03/21 01:22:07;;;;;;;7.22;5.82;;;;;;;-142.70;100.00;60390.16;4884549;29;20069;-77
2023/03/21 01:24:33;;;;;;;7.15;4.90;;;;;;;-142.70;100.00;60390.16;4868086;29;20419;-77
2023/03/21 01:27:01;;;;;;;7.65;5.53;;;;;;;-142.70;100.00;60390.16;4853153;29;20083;-77
2023/03/21 01:29:26;;;;;;;6.63;5.40;;;;;;;-142.70;100.00;60390.16;4868816;29;20037;-77
2023/03/21 01:31:52;;;;;;;6.70;5.38;;;;;;;-142.70;100.00;60390.16;4883918;29;20506;-77
2023/03/21 01:34:17;;;;;;;7.82;5.65;;;;;;;-142.70;100.00;60390.16;4870064;29;20414;-77
2023/03/21 01:36:43;;;;;;;6.97;4.72;;;;;;;-142.70;100.00;60390.16;4883616;29;20076;-76
2023/03/21 01:39:08;;;;;;;6.10;4.45;;;;;;;-142.70;100.00;60390.16;4884213;29;20419;-77
2023/03/21 01:41:40;;;;;;;7.07;5.65;;;;;;;-142.70;100.00;60390.16;4884052;29;20035;-77
2023/03/21 01:44:06;;;;;;;7.90;5.43;;;;;;;-142.70;100.00;60390.16;4868504;29;20035;-77
2023/03/21 01:46:38;;;;;;;6.15;4.93;;;;;;;-142.70;100.00;60390.16;4868065;29;20033;-77
2023/03/21 01:49:10;;;;;;;5.72;4.70;;;;;;;-142.70;100.00;60390.16;4883019;29;20412;-76
2023/03/21 01:51:39;;;;;;;5.65;4.78;;;;;;;-142.70;100.00;60390.16;4869975;29;20025;-77
2023/03/21 01:54:08;;;;;;;5.50;5.00;;;;;;;-142.70;100.00;60390.16;4852244;29;20025;-76
2023/03/21 01:56:36;;;;;;;5.32;4.82;;;;;;;-142.70;100.00;60390.16;4868749;29;20221;-76
2023/03/21 01:59:10;;;;;;;4.90;4.50;;;;;;;-142.70;100.00;60390.16;4867876;29;20036;-74
2023/03/21 02:01:37;;;;;;;6.95;5.00;;;;;;;-142.70;100.00;60390.16;4852714;29;20132;-77
2023/03/21 02:04:03;;;;;;;6.43;5.78;;;;;;;-142.70;100.00;60390.16;4867961;29;20036;-77
2023/03/21 02:06:39;;;;;;;8.73;7.60;;;;;;;-142.70;100.00;60390.16;4868025;29;20708;-76
2023/03/21 02:09:09;;;;;;;8.68;6.72;;;;;;;-142.70;100.00;60390.16;4869313;29;20112;-77
2023/03/21 02:11:35;;;;;;;8.73;7.40;;;;;;;-142.70;100.00;60390.16;4868840;29;20029;-77
2023/03/21 02:14:01;;;;;;;6.32;5.25;;;;;;;-142.70;100.00;60390.16;4868184;29;20621;-77
2023/03/21 02:16:40;;;;;;;5.22;4.70;;;;;;;-142.70;100.00;60390.16;4868939;29;20025;-77
2023/03/21 02:19:30;;;;;;;5.13;4.70;;;;;;;-142.70;100.00;60390.16;4883220;29;20041;-75
2023/03/21 02:21:56;;;;;;;10.77;7.97;;;;;;;-142.70;100.00;60390.16;4868383;29;20033;-77
2023/03/21 02:24:42;;;;;;;18.98;12.70;;;;;;;-142.70;100.00;60390.16;4868732;29;20033;-77
2023/03/21 02:27:12;;;;;;;21.08;12.48;;;;;;;-142.70;100.00;60390.16;4869815;29;20554;-77
2023/03/21 02:29:49;;;;;;;15.82;10.85;;;;;;;-142.70;100.00;60390.16;4867270;29;20037;-77
2023/03/21 02:32:36;;;;;;;8.80;7.68;;;;;;;-142.70;100.00;60390.16;4883446;29;20226;-77
2023/03/21 02:35:48;;;;;;;7.28;6.55;;;;;;;-142.70;100.00;60390.16;4858174;29;20029;-77
2023/03/21 02:38:26;;;;;;;9.30;6.90;;;;;;;-142.70;100.00;60390.16;4840596;29;20045;-76
2023/03/21 02:41:06;;;;;;;8.18;6.63;;;;;;;-142.70;100.00;60390.16;4868605;29;20096;-77
2023/03/21 02:43:45;;;;;;;14.27;6.05;;;;;;;-142.70;100.00;60390.16;4851507;29;20056;-77
2023/03/21 02:46:25;;;;;;;7.45;6.75;;;;;;;-142.70;100.00;60390.16;4851431;29;20500;-76
2023/03/21 02:48:55;;;;;;;7.50;6.03;;;;;;;-142.70;100.00;60390.16;4868069;29;20035;-77
2023/03/21 02:51:23;;;;;;;9.23;7.43;;;;;;;-142.70;100.00;60390.16;4866835;29;20092;-77
2023/03/21 02:54:00;;;;;;;7.22;6.53;;;;;;;-142.70;100.00;60390.16;4867804;29;20059;-77
2023/03/21 02:56:26;;;;;;;10.07;6.80;;;;;;;-142.70;100.00;60390.16;4868254;29;20076;-76
2023/03/21 02:58:52;;;;;;;6.82;6.03;;;;;;;-142.70;100.00;60390.16;4867142;29;20025;-77
2023/03/21 03:01:18;;;;;;;7.00;6.25;;;;;;;-142.70;100.00;60390.16;4867385;29;20033;-77
2023/03/21 03:03:43;;;;;;;6.85;6.07;;;;;;;-142.70;100.00;60390.16;4866530;29;20102;-77
2023/03/21 03:06:16;;;;;;;7.55;6.15;;;;;;;-142.70;100.00;60390.16;4867517;29;20039;-77
2023/03/21 03:09:11;;;;;;;8.57;6.40;;;;;;;-142.70;100.00;60390.16;4851231;29;20040;-77
2023/03/21 03:11:39;;;;;;;8.55;7.13;;;;;;;-142.70;100.00;60390.16;4867014;29;20085;-77
2023/03/21 03:14:22;;;;;;;11.68;7.50;;;;;;;-142.70;100.00;60390.16;4852085;29;20123;-77
2023/03/21 03:17:16;;;;;;;10.05;7.57;;;;;;;-142.70;100.00;60390.16;4882239;29;20618;-77
2023/03/21 03:19:54;;;;;;;9.02;7.57;;;;;;;-142.70;100.00;60390.16;4871890;29;20043;-77
2023/03/21 03:22:28;;;;;;;9.25;7.15;;;;;;;-142.70;100.00;60390.16;4867747;29;20042;-77
2023/03/21 03:25:01;;;;;;;8.80;7.28;;;;;;;-142.70;100.00;60390.16;4848998;29;20064;-74
2023/03/21 03:27:34;;;;;;;8.77;7.80;;;;;;;-142.70;100.00;60390.16;4862990;29;20029;-75
2023/03/21 03:30:01;;;;;;;11.00;8.07;;;;;;;-142.70;100.00;60390.16;4865977;29;20033;-74
2023/03/21 03:32:43;;;;;;;12.45;9.95;;;;;;;-142.70;100.00;60390.16;4866946;29;20029;-74
2023/03/21 03:35:10;;;;;;;13.27;9.48;;;;;;;-142.70;100.00;60390.16;4867831;29;20121;-74
2023/03/21 03:37:37;;;;;;;10.95;7.15;;;;;;;-142.70;100.00;60390.16;4867911;29;20536;-74
2023/03/21 03:40:09;;;;;;;10.93;7.05;;;;;;;-142.70;100.00;60390.16;4866927;29;20470;-74
2023/03/21 03:42:39;;;;;;;9.05;6.75;;;;;;;-142.70;100.00;60390.16;4867589;29;20037;-75
2023/03/21 03:45:05;;;;;;;8.00;6.38;;;;;;;-142.70;100.00;60390.16;4866869;29;20031;-74
2023/03/21 03:47:37;;;;;;;7.68;6.88;;;;;;;-142.70;100.00;60390.16;4865492;29;20513;-74
2023/03/21 03:50:11;;;;;;;7.97;7.18;;;;;;;-142.70;100.00;60390.16;4866855;29;20057;-74
2023/03/21 03:52:40;;;;;;;7.55;6.68;;;;;;;-142.70;100.00;60390.16;4850846;29;20032;-77
2023/03/21 03:55:06;;;;;;;7.97;6.35;;;;;;;-142.70;100.00;60390.16;4866434;29;20029;-77
2023/03/21 03:57:31;;;;;;;8.68;6.43;;;;;;;-142.70;100.00;60390.16;4866133;29;20049;-77
2023/03/21 03:59:57;;;;;;;7.38;6.57;;;;;;;-142.70;100.00;60390.16;4849520;29;20104;-74
2023/03/21 04:02:22;;;;;;;10.15;7.18;;;;;;;-142.70;100.00;60390.16;4866646;29;20573;-74
2023/03/21 04:04:51;;;;;;;10.98;7.10;;;;;;;-142.70;100.00;60390.16;4850141;29;20029;-75
2023/03/21 04:07:20;;;;;;;7.80;7.03;;;;;;;-142.70;100.00;60390.16;4866704;29;20029;-75
2023/03/21 04:09:45;;;;;;;8.10;7.03;;;;;;;-142.70;100.00;60390.16;4866693;29;20057;-75
2023/03/21 04:12:11;;;;;;;15.30;8.93;;;;;;;-142.70;100.00;60390.16;4867193;29;20025;-75
2023/03/21 04:14:37;;;;;;;13.13;9.13;;;;;;;-142.70;100.00;60390.16;4865726;29;20039;-75
2023/03/21 04:17:02;;;;;;;12.93;8.30;;;;;;;-142.70;100.00;60390.16;4867327;29;20029;-75
2023/03/21 04:19:28;;;;;;;12.70;7.95;;;;;;;-142.70;100.00;60390.16;4881474;29;20128;-75
2023/03/21 04:21:54;;;;;;;13.85;10.43;;;;;;;-142.70;100.00;60390.16;4880915;29;20033;-77
2023/03/21 04:24:21;;;;;;;41.63;23.20;;;;;;;-142.70;100.00;60390.16;4881827;29;20061;-77
2023/03/21 04:26:46;;;;;;;47.88;25.48;;;;;;;-142.70;100.00;60390.16;4880521;29;20089;-74
2023/03/21 04:29:12;;;;;;;45.88;25.65;;;;;;;-142.70;100.00;60390.16;4867287;29;20490;-75
2023/03/21 04:31:40;;;;;;;41.78;21.35;;;;;;;-142.70;100.00;60390.16;4865480;29;20069;-75
2023/03/21 04:34:08;;;;;;;38.28;20.60;;;;;;;-142.70;100.00;60390.16;4865587;29;20049;-75
2023/03/21 04:36:37;;;;;;;21.88;15.02;;;;;;;-142.70;100.00;60390.16;4850415;29;20120;-75
2023/03/21 04:39:10;;;;;;;20.55;14.90;;;;;;;-142.70;100.00;60390.16;4850521;29;20471;-75
2023/03/21 04:41:36;;;;;;;63.50;42.80;;;;;;;-142.70;100.00;60390.16;4852946;29;20128;-75
2023/03/21 04:44:02;;;;;;;45.22;31.13;;;;;;;-142.70;100.00;60390.16;4865529;29;20598;-75
2023/03/21 04:46:27;;;;;;;22.13;16.98;;;;;;;-142.70;100.00;60390.16;4865765;29;20069;-74
2023/03/21 04:48:53;;;;;;;19.08;14.05;;;;;;;-142.70;100.00;60390.16;4865330;29;20088;-75
2023/03/21 04:51:18;;;;;;;24.55;13.30;;;;;;;-142.70;100.00;60390.16;4865829;29;20814;-75
2023/03/21 04:53:45;;;;;;;23.77;15.15;;;;;;;-142.70;100.00;60390.16;4866545;29;20535;-75
2023/03/21 04:56:11;;;;;;;20.00;14.05;;;;;;;-142.70;100.00;60390.16;4881284;29;20905;-75
2023/03/21 04:58:39;;;;;;;19.50;13.93;;;;;;;-142.70;100.00;60390.16;4865718;29;20057;-74
2023/03/21 05:01:05;;;;;;;21.48;13.15;;;;;;;-142.70;100.00;60390.16;4865411;29;20033;-74
2023/03/21 05:03:33;;;;;;;30.17;17.05;;;;;;;-142.70;100.00;60390.16;4866029;29;20044;-75
2023/03/21 05:05:59;;;;;;;21.40;14.82;;;;;;;-142.70;100.00;60390.16;4880448;29;20021;-75
2023/03/21 05:08:25;;;;;;;20.80;14.77;;;;;;;-142.70;100.00;60390.16;4866340;29;20130;-75
2023/03/21 05:10:51;;;;;;;19.67;13.77;;;;;;;-142.70;100.00;60390.16;4880622;29;20117;-75
2023/03/21 05:13:16;;;;;;;29.30;13.27;;;;;;;-142.70;100.00;60390.16;4881322;29;20073;-75
2023/03/21 05:15:41;;;;;;;13.40;10.40;;;;;;;-142.70;100.00;60390.16;4880377;29;20498;-74
2023/03/21 05:18:10;;;;;;;13.90;10.55;;;;;;;-142.70;100.00;60390.16;4880832;29;20029;-75
2023/03/21 05:20:41;;;;;;;14.65;11.40;;;;;;;-142.70;100.00;60390.16;4866964;29;20112;-74
2023/03/21 05:23:09;;;;;;;24.58;14.95;;;;;;;-142.70;100.00;60390.16;4863267;29;20666;-75
2023/03/21 05:25:38;;;;;;;20.92;13.75;;;;;;;-142.70;100.00;60390.16;4853655;29;20105;-75
2023/03/21 05:28:05;;;;;;;15.07;10.70;;;;;;;-142.70;100.00;60390.16;4868949;29;20028;-75
2023/03/21 05:30:31;;;;;;;11.60;9.05;;;;;;;-142.70;100.00;60390.16;4868943;29;20052;-75
2023/03/21 05:32:56;;;;;;;11.88;8.73;;;;;;;-142.70;100.00;60390.16;4869824;29;20033;-75
2023/03/21 05:35:22;;;;;;;11.05;8.55;;;;;;;-142.70;100.00;60390.16;4884011;29;20064;-74
2023/03/21 05:37:48;;;;;;;10.60;9.20;;;;;;;-142.70;100.00;60390.16;4884027;29;20172;-74
2023/03/21 05:40:14;;;;;;;13.85;8.32;;;;;;;-142.70;100.00;60390.16;4883905;29;20081;-75
2023/03/21 05:42:39;;;;;;;15.45;8.07;;;;;;;-142.70;100.00;60390.16;4884411;29;20025;-74
2023/03/21 05:45:05;;;;;;;9.45;8.07;;;;;;;-142.70;100.00;60390.16;4883101;29;20039;-75
2023/03/21 05:47:31;;;;;;;12.57;8.05;;;;;;;-142.70;100.00;60390.16;4853607;29;20487;-75
2023/03/21 05:49:56;;;;;;;12.15;7.78;;;;;;;-142.70;100.00;60390.16;4868054;29;20040;-75
2023/03/21 05:52:22;;;;;;;14.32;7.57;;;;;;;-142.70;100.00;60390.16;4883965;29;20553;-75
2023/03/21 05:54:48;;;;;;;11.48;7.53;;;;;;;-142.70;100.00;60390.16;4869366;29;20044;-75
2023/03/21 05:57:13;;;;;;;7.78;6.97;;;;;;;-142.70;100.00;60390.16;4883375;29;20049;-75
2023/03/21 05:59:39;;;;;;;10.15;8.50;;;;;;;-142.70;100.00;60390.16;4867971;29;20120;-75
2023/03/21 06:02:04;;;;;;;16.35;11.43;;;;;;;-142.70;100.00;60390.16;4883327;29;20057;-75
2023/03/21 06:04:30;;;;;;;13.50;12.27;;;;;;;-142.70;100.00;60390.16;4868124;29;20127;-75
2023/03/21 06:06:55;;;;;;;13.40;12.02;;;;;;;-142.70;100.00;60390.16;4866997;29;20105;-75
2023/03/21 06:09:22;;;;;;;10.60;9.60;;;;;;;-142.70;100.00;60390.16;4883910;29;20029;-75
2023/03/21 06:11:49;;;;;;;10.75;8.93;;;;;;;-142.70;100.00;60390.16;4866861;29;20025;-75
2023/03/21 06:14:15;;;;;;;10.25;8.38;;;;;;;-142.70;100.00;60390.16;4867295;29;20115;-75
2023/03/21 06:16:41;;;;;;;10.68;7.90;;;;;;;-142.70;100.00;60390.16;4883140;29;20172;-75
2023/03/21 06:19:07;;;;;;;10.65;7.57;;;;;;;-142.70;100.00;60390.16;4867479;29;20041;-75
2023/03/21 06:21:32;;;;;;;9.20;6.75;;;;;;;-142.70;100.00;60390.16;4868006;29;20123;-75
2023/03/21 06:23:58;;;;;;;8.57;6.80;;;;;;;-142.70;100.00;60390.16;4886607;29;20633;-75
2023/03/21 06:26:23;;;;;;;8.88;6.82;;;;;;;-142.70;100.00;60390.16;4871833;29;20044;-76
2023/03/21 06:28:49;;;;;;;8.30;7.60;;;;;;;-142.70;100.00;60390.16;4868454;29;20029;-76
2023/03/21 06:31:15;;;;;;;13.18;11.77;;;;;;;-142.70;100.00;60390.16;4867487;29;20042;-75
2023/03/21 06:33:40;;;;;;;15.73;14.05;;;;;;;-142.70;100.00;60390.16;4867102;29;20025;-75
2023/03/21 06:36:06;;;;;;;19.60;13.82;;;;;;;-142.70;100.00;60390.16;4882621;29;20100;-75
2023/03/21 06:38:32;;;;;;;13.55;10.90;;;;;;;-142.70;100.00;60390.16;4869022;29;20188;-75
2023/03/21 06:40:57;;;;;;;10.38;9.38;;;;;;;-142.70;100.00;60390.16;4868669;29;20444;-75
2023/03/21 06:43:23;;;;;;;10.73;8.50;;;;;;;-142.70;100.00;60390.16;4868685;29;20048;-75
2023/03/21 06:45:48;;;;;;;10.40;9.05;;;;;;;-142.70;100.00;60390.16;4866788;29;20025;-76
2023/03/21 06:48:14;;;;;;;29.58;9.95;;;;;;;-142.70;100.00;60390.16;4867124;29;20025;-75
2023/03/21 06:50:39;;;;;;;35.60;10.20;;;;;;;-142.70;100.00;60390.16;4868433;29;20029;-76
2023/03/21 06:53:05;;;;;;;13.50;9.40;;;;;;;-142.70;100.00;60390.16;4866876;29;20057;-76
2023/03/21 06:55:30;;;;;;;14.57;8.98;;;;;;;-142.70;100.00;60390.16;4868012;29;20029;-76
2023/03/21 06:57:56;;;;;;;12.70;10.43;;;;;;;-142.70;100.00;60390.16;4882283;29;20093;-76
2023/03/21 07:00:22;;;;;;;14.95;12.57;;;;;;;-142.70;100.00;60390.16;4866802;29;20544;-76
2023/03/21 07:02:48;;;;;;;17.42;11.77;;;;;;;-142.70;100.00;60390.16;4866634;29;20073;-76
2023/03/21 07:05:14;;;;;;;14.70;11.32;;;;;;;-142.70;100.00;60390.16;4866887;29;20025;-76
2023/03/21 07:07:40;;;;;;;9.43;8.52;;;;;;;-142.70;100.00;60390.16;4866382;29;20036;-76
2023/03/21 07:10:06;;;;;;;9.05;8.00;;;;;;;-142.70;100.00;60390.16;4868311;29;20033;-76
2023/03/21 07:12:33;;;;;;;12.45;8.50;;;;;;;-142.70;100.00;60390.16;4866105;29;20029;-76
2023/03/21 07:15:03;;;;;;;11.02;9.90;;;;;;;-142.70;100.00;60390.16;4867980;29;20060;-75
2023/03/21 07:17:29;;;;;;;9.93;9.07;;;;;;;-142.70;100.00;60390.16;4866382;29;20415;-75
2023/03/21 07:19:54;;;;;;;14.30;9.57;;;;;;;-142.70;100.00;60390.16;4864443;29;20087;-76
2023/03/21 07:22:21;;;;;;;14.30;10.52;;;;;;;-142.70;100.00;60390.16;4852365;29;20488;-75
2023/03/21 07:24:47;;;;;;;13.10;10.60;;;;;;;-142.70;100.00;60390.16;4852822;29;20554;-76
2023/03/21 07:27:13;;;;;;;13.30;10.70;;;;;;;-142.70;100.00;60390.16;4867567;29;20044;-75
2023/03/21 07:29:39;;;;;;;15.85;10.52;;;;;;;-142.70;100.00;60390.16;4866350;29;20173;-76
2023/03/21 07:32:05;;;;;;;16.00;11.45;;;;;;;-142.70;100.00;60390.16;4866568;29;20585;-75
2023/03/21 07:34:32;;;;;;;14.35;11.23;;;;;;;-142.70;100.00;60390.16;4866056;29;20025;-75
2023/03/21 07:36:58;;;;;;;16.73;11.63;;;;;;;-142.70;100.00;60390.16;4867079;29;20039;-75
2023/03/21 07:39:24;;;;;;;12.65;11.35;;;;;;;-142.70;100.00;60390.16;4863467;29;20041;-76
2023/03/21 07:41:50;;;;;;;13.00;10.95;;;;;;;-142.70;100.00;60390.16;4852229;29;20037;-76
2023/03/21 07:44:15;;;;;;;13.63;11.60;;;;;;;-142.70;100.00;60390.16;4844094;29;20037;-75
2023/03/21 07:46:41;;;;;;;13.25;11.50;;;;;;;-142.70;100.00;60390.16;4849600;29;20026;-76
2023/03/21 07:49:07;;;;;;;12.45;11.15;;;;;;;-142.70;100.00;60390.16;4860706;29;20635;-75
2023/03/21 07:51:34;;;;;;;12.38;10.80;;;;;;;-142.70;100.00;60390.16;4858709;29;20021;-75
2023/03/21 07:54:00;;;;;;;10.95;9.98;;;;;;;-142.70;100.00;60390.16;4854563;29;20045;-76
2023/03/21 07:56:26;;;;;;;9.95;8.57;;;;;;;-142.70;100.00;60390.16;4851890;29;20064;-75
2023/03/21 07:58:52;;;;;;;15.18;10.30;;;;;;;-142.70;100.00;60390.16;4861739;29;20486;-75
2023/03/21 08:01:18;;;;;;;11.45;10.38;;;;;;;-142.70;100.00;60390.16;4868548;29;20112;-75
2023/03/21 08:03:43;;;;;;;12.10;10.82;;;;;;;-142.70;100.00;60390.16;4880308;29;20032;-75
2023/03/21 08:06:09;;;;;;;13.23;11.40;;;;;;;-142.70;100.00;60390.16;4863930;29;20567;-75
2023/03/21 08:08:35;;;;;;;13.48;10.55;;;;;;;-142.70;100.00;60390.16;4864593;29;20033;-75
2023/03/21 08:11:00;;;;;;;11.55;10.27;;;;;;;-142.70;100.00;60390.16;4865174;29;20025;-75
2023/03/21 08:13:26;;;;;;;11.98;10.77;;;;;;;-142.70;100.00;60390.16;4865926;29;20032;-75
2023/03/21 08:15:52;;;;;;;18.52;11.38;;;;;;;-142.70;100.00;60390.16;4848682;29;20492;-75
2023/03/21 08:18:17;;;;;;;13.40;10.88;;;;;;;-142.70;100.00;60390.16;4865273;29;20029;-75
2023/03/21 08:20:42;;;;;;;13.95;10.50;;;;;;;-142.70;100.00;60390.16;4863479;29;20555;-75
2023/03/21 08:23:08;;;;;;;12.25;10.70;;;;;;;-142.70;100.00;60390.16;4880425;29;20645;-76
2023/03/21 08:25:35;;;;;;;13.60;10.43;;;;;;;-142.70;100.00;60390.16;4849176;29;20156;-76
2023/03/21 08:28:00;;;;;;;13.25;10.85;;;;;;;-142.70;100.00;60390.16;4863689;29;20033;-75
2023/03/21 08:30:27;;;;;;;13.80;10.68;;;;;;;-142.70;100.00;60390.16;4879788;29;20069;-75
2023/03/21 08:32:57;;;;;;;12.77;11.43;;;;;;;-142.70;100.00;60390.16;4833935;29;20037;-75
2023/03/21 08:35:22;;;;;;;16.75;11.38;;;;;;;-142.70;100.00;60390.16;4864959;29;20048;-75
2023/03/21 08:37:48;;;;;;;16.83;11.23;;;;;;;-142.70;100.00;60390.16;4864560;29;20028;-75
2023/03/21 08:40:16;;;;;;;12.43;11.15;;;;;;;-142.70;100.00;60390.16;4849915;29;20063;-75
2023/03/21 08:42:42;;;;;;;12.63;11.07;;;;;;;-142.70;100.00;60390.16;4864679;29;20029;-76
2023/03/21 08:45:08;;;;;;;14.52;12.02;;;;;;;-142.70;100.00;60390.16;4865251;29;20037;-75
2023/03/21 08:47:33;;;;;;;12.25;10.70;;;;;;;-142.70;100.00;60390.16;4864483;29;20033;-75
2023/03/21 08:49:59;;;;;;;14.32;10.23;;;;;;;-142.70;100.00;60390.16;4866235;29;20032;-75
2023/03/21 08:52:25;;;;;;;12.15;10.85;;;;;;;-142.70;100.00;60390.16;4875190;29;20052;-76
2023/03/21 08:54:51;;;;;;;12.63;11.32;;;;;;;-142.70;100.00;60390.16;4873688;29;20448;-75
2023/03/21 08:57:17;;;;;;;15.25;11.57;;;;;;;-142.70;100.00;60390.16;4866679;29;20052;-75
2023/03/21 08:59:42;;;;;;;15.35;11.52;;;;;;;-142.70;100.00;60390.16;4883231;29;20052;-76
2023/03/21 09:02:10;;;;;;;14.05;11.70;;;;;;;-142.70;100.00;60390.16;4885617;29;20952;-75
2023/03/21 09:04:36;;;;;;;14.77;11.80;;;;;;;-142.70;100.00;60390.16;4861298;29;20040;-75
2023/03/21 09:07:03;;;;;;;14.65;12.18;;;;;;;-142.70;100.00;60390.16;4863843;29;20032;-76
2023/03/21 09:09:29;;;;;;;13.00;11.70;;;;;;;-142.70;100.00;60390.16;4869277;29;20129;-75
2023/03/21 09:11:55;;;;;;;15.23;12.05;;;;;;;-142.70;100.00;60390.16;4883357;29;20140;-76
2023/03/21 09:14:20;;;;;;;14.73;12.40;;;;;;;-142.70;100.00;60390.16;4869338;29;20520;-75
2023/03/21 09:16:46;;;;;;;13.38;11.98;;;;;;;-142.70;100.00;60390.16;4883505;29;20029;-75
2023/03/21 09:19:11;;;;;;;13.48;11.73;;;;;;;-142.70;100.00;60390.16;4883685;29;20021;-75
2023/03/21 09:21:37;;;;;;;13.43;10.30;;;;;;;-142.70;100.00;60390.16;4868196;29;20033;-76
2023/03/21 09:24:05;;;;;;;11.77;10.30;;;;;;;-142.70;100.00;60390.16;4860885;29;20577;-75
2023/03/21 09:26:32;;;;;;;12.70;10.27;;;;;;;-142.70;100.00;60390.16;4874420;29;20148;-75
2023/03/21 09:28:59;;;;;;;13.65;11.13;;;;;;;-142.70;100.00;60390.16;4864795;29;20029;-76
2023/03/21 09:31:27;;;;;;;14.82;11.07;;;;;;;-142.70;100.00;60390.16;4849783;29;20113;-75
2023/03/21 09:33:52;;;;;;;14.40;10.30;;;;;;;-142.70;100.00;60390.16;4849091;29;20101;-75
2023/03/21 09:36:19;;;;;;;15.40;10.73;;;;;;;-142.70;100.00;60390.16;4849092;29;20128;-75
2023/03/21 09:38:46;;;;;;;11.18;10.02;;;;;;;-142.70;100.00;60390.16;4867757;29;20062;-75
2023/03/21 09:41:40;;;;;;;12.50;11.10;;;;;;;-142.70;100.00;60390.16;4867932;29;20054;-75
2023/03/21 09:44:28;;;;;;;15.35;10.90;;;;;;;-142.70;100.00;60390.16;4855458;29;20033;-75
2023/03/21 09:47:20;;;;;;;16.75;10.55;;;;;;;-142.70;100.00;60390.16;4868685;29;20033;-75
2023/03/21 09:49:50;;;;;;;12.35;10.50;;;;;;;-142.70;100.00;60390.16;4869183;29;20037;-75
2023/03/21 09:52:43;;;;;;;13.48;10.82;;;;;;;-142.70;100.00;60390.16;4868688;29;20099;-75
2023/03/21 09:55:30;;;;;;;12.57;11.10;;;;;;;-142.70;100.00;60390.16;4882722;29;20033;-75
2023/03/21 09:58:19;;;;;;;11.15;9.82;;;;;;;-142.70;100.00;60390.16;4868602;29;20083;-75
2023/03/21 10:00:48;;;;;;;10.30;9.30;;;;;;;-142.70;100.00;60390.16;4866917;29;20056;-75
2023/03/21 10:03:25;;;;;;;12.30;9.82;;;;;;;-142.70;100.00;60390.16;4866221;29;20037;-75
2023/03/21 10:05:57;;;;;;;11.82;9.90;;;;;;;-142.70;100.00;60390.16;4866823;29;20407;-76
2023/03/21 10:08:35;;;;;;;13.48;10.57;;;;;;;-142.70;100.00;60390.16;4867290;29;20064;-76
2023/03/21 10:11:26;;;;;;;11.27;10.23;;;;;;;-142.70;100.00;60390.16;4866466;29;20033;-75
2023/03/21 10:14:07;;;;;;;12.07;9.90;;;;;;;-142.70;100.00;60390.16;4867052;29;20101;-75
2023/03/21 10:16:41;;;;;;;11.35;9.63;;;;;;;-142.70;100.00;60390.16;4851628;29;20041;-75
2023/03/21 10:19:11;;;;;;;11.95;9.68;;;;;;;-142.70;100.00;60390.16;4867142;29;20108;-75
2023/03/21 10:21:42;;;;;;;12.05;10.10;;;;;;;-142.70;100.00;60390.16;4866794;29;20032;-75
2023/03/21 10:24:14;;;;;;;11.00;9.75;;;;;;;-142.70;100.00;60390.16;4867521;29;20108;-76
2023/03/21 10:26:40;;;;;;;11.80;10.70;;;;;;;-142.70;100.00;60390.16;4867606;29;20466;-75
2023/03/21 10:29:05;;;;;;;11.38;10.27;;;;;;;-142.70;100.00;60390.16;4866299;29;20029;-73
2023/03/21 10:31:31;;;;;;;13.13;10.20;;;;;;;-142.70;100.00;60390.16;4866761;29;20037;-76
2023/03/21 10:34:04;;;;;;;10.73;9.73;;;;;;;-142.70;100.00;60390.16;4867817;29;20033;-76
2023/03/21 10:36:31;;;;;;;10.68;9.52;;;;;;;-142.70;100.00;60390.16;4866339;29;20052;-76
2023/03/21 10:39:03;;;;;;;11.15;8.30;;;;;;;-142.70;100.00;60390.16;4866426;29;20036;-75
2023/03/21 10:41:29;;;;;;;13.32;8.60;;;;;;;-142.70;100.00;60390.16;4850145;29;20043;-76
2023/03/21 10:44:07;;;;;;;12.85;8.63;;;;;;;-142.70;100.00;60390.16;4863325;29;20480;-76
2023/03/21 10:46:34;;;;;;;16.58;8.73;;;;;;;-142.70;100.00;60390.16;4859524;29;20061;-75
2023/03/21 10:49:00;;;;;;;10.57;8.48;;;;;;;-142.70;100.00;60390.16;4866608;29;20045;-76
2023/03/21 10:51:35;;;;;;;16.33;8.20;;;;;;;-142.70;100.00;60390.16;4865742;29;20040;-76
2023/03/21 10:54:07;;;;;;;7.75;6.93;;;;;;;-142.70;100.00;60390.16;4861358;29;20049;-76
2023/03/21 10:56:38;;;;;;;13.00;7.93;;;;;;;-142.70;100.00;60390.16;4860778;29;20053;-73
2023/03/21 10:59:05;;;;;;;9.55;8.32;;;;;;;-142.70;100.00;60390.16;4854656;29;20033;-74
2023/03/21 11:01:36;;;;;;;10.15;7.68;;;;;;;-142.70;100.00;60390.16;4881102;29;20044;-75
2023/03/21 11:04:23;;;;;;;8.80;7.32;;;;;;;-142.70;100.00;60390.16;4865847;29;20140;-75
2023/03/21 11:06:58;;;;;;;9.38;8.18;;;;;;;-142.70;100.00;60390.16;4881551;29;20025;-75
2023/03/21 11:09:26;;;;;;;9.75;7.80;;;;;;;-142.70;100.00;60390.16;4881025;29;20419;-75